Time;durP1;ratioP1;P1;durP2;ratioP2;P2;SDS_P1;SDS_P2;PMS_P1;PMS_P2;Temp;Humidity;BMP_temperature;BMP_pressure;BME280_temperature;BME280_humidity;BME280_pressure;Samples;Min_cycle;Max_cycle;Signal;HPM_P1;HPM_P2
2023/02/07 00:00:09;;;;;;;12.97;4.67;;;-4.10;99.90;;;;;;5034290;28;20183;-87
2023/02/07 00:02:35;;;;;;;8.37;4.77;;;;;;;;;;5018452;28;20182;-87
2023/02/07 00:05:01;;;;;;;9.23;7.13;;;;;;;;;;5033936;28;20180;-87
2023/02/07 00:07:27;;;;;;;12.30;5.40;;;-4.60;99.90;;;;;;5033742;28;20185;-86
2023/02/07 00:09:53;;;;;;;14.13;6.60;;;-2.60;99.90;;;;;;5016136;28;20294;-86
2023/02/07 00:12:18;;;;;;;14.27;5.40;;;-4.60;99.90;;;;;;5000077;28;20204;-87
2023/02/07 00:14:44;;;;;;;20.40;9.00;;;-3.40;99.90;;;;;;5003275;28;20189;-87
2023/02/07 00:17:10;;;;;;;12.33;7.23;;;;;;;;;;4996453;28;20206;-87
2023/02/07 00:19:36;;;;;;;17.90;8.60;;;-4.60;99.90;;;;;;4996275;28;20216;-87
2023/02/07 00:22:02;;;;;;;14.70;6.40;;;-1.80;99.90;;;;;;4964161;28;20264;-87
2023/02/07 00:24:28;;;;;;;26.63;8.07;;;;;;;;;;4980313;28;20651;-87
2023/02/07 00:26:54;;;;;;;12.97;8.53;;;-4.60;99.90;;;;;;5013595;28;20187;-87
2023/02/07 00:29:20;;;;;;;20.13;9.40;;;-3.90;99.90;;;;;;4964467;28;20656;-87
2023/02/07 00:31:46;;;;;;;9.07;6.17;;;-3.80;99.90;;;;;;4963841;28;20200;-87
2023/02/07 00:34:12;;;;;;;10.57;5.67;;;;;;;;;;4996079;28;20185;-88
2023/02/07 00:36:39;;;;;;;15.67;8.37;;;-4.50;99.90;;;;;;5013409;28;20245;-88
2023/02/07 00:39:10;;;;;;;13.60;5.27;;;-4.40;99.90;;;;;;4996066;28;20187;-87
2023/02/07 00:41:36;;;;;;;13.87;7.80;;;;;;;;;;5013509;28;20317;-88
2023/02/07 00:44:02;;;;;;;8.30;5.73;;;;;;;;;;4996152;28;20212;-88
2023/02/07 00:46:28;;;;;;;19.10;10.13;;;;;;;;;;4980143;28;20267;-88
2023/02/07 00:48:54;;;;;;;11.07;7.00;;;-4.40;99.90;;;;;;4995817;28;20186;-87
2023/02/07 00:51:20;;;;;;;8.93;5.43;;;-4.30;99.90;;;;;;4996075;28;20200;-87
2023/02/07 00:53:47;;;;;;;16.47;8.40;;;-2.40;99.90;;;;;;4979492;28;20186;-88
2023/02/07 00:56:13;;;;;;;20.53;8.67;;;-2.70;99.90;;;;;;4995861;28;20209;-87
2023/02/07 00:58:39;;;;;;;6.37;5.30;;;-3.90;99.90;;;;;;4995660;28;20243;-88
2023/02/07 01:01:05;;;;;;;6.63;5.60;;;-4.00;99.90;;;;;;5013558;28;20212;-88
2023/02/07 01:03:31;;;;;;;23.53;8.27;;;;;;;;;;4996257;28;20182;-88
2023/02/07 01:05:57;;;;;;;4.53;3.83;;;-4.30;99.90;;;;;;4995538;28;20725;-87
2023/02/07 01:08:23;;;;;;;12.63;8.93;;;-2.70;99.90;;;;;;5013449;28;20262;-87
2023/02/07 01:10:49;;;;;;;5.33;4.83;;;;;;;;;;4979342;28;20626;-88
2023/02/07 01:13:15;;;;;;;22.30;10.13;;;-4.20;99.90;;;;;;5013172;28;20634;-88
2023/02/07 01:15:45;;;;;;;14.83;6.40;;;-2.10;99.90;;;;;;5013072;28;20259;-88
2023/02/07 01:18:11;;;;;;;7.90;5.43;;;-3.30;99.90;;;;;;5013417;28;20193;-86
2023/02/07 01:20:37;;;;;;;6.50;4.70;;;;;;;;;;4995417;28;20332;-86
2023/02/07 01:23:03;;;;;;;9.83;6.10;;;-4.20;99.90;;;;;;4995692;28;20191;-86
2023/02/07 01:25:29;;;;;;;10.83;7.03;;;-2.50;99.90;;;;;;5014452;28;20214;-88
2023/02/07 01:27:55;;;;;;;13.20;7.03;;;;;;;;;;5015038;28;20299;-86
2023/02/07 01:30:21;;;;;;;20.13;10.33;;;-4.20;99.90;;;;;;5015423;28;20190;-88
2023/02/07 01:32:47;;;;;;;9.13;6.30;;;;;;;;;;5015204;28;20262;-88
2023/02/07 01:35:13;;;;;;;7.83;4.50;;;;;;;;;;5033665;28;20204;-86
2023/02/07 01:37:39;;;;;;;11.27;5.87;;;;;;;;;;5015417;28;20202;-88
2023/02/07 01:40:06;;;;;;;8.17;5.93;;;-4.20;99.90;;;;;;5015172;28;20207;-85
2023/02/07 01:42:32;;;;;;;12.20;6.73;;;;;;;;;;4999504;28;20187;-85
2023/02/07 01:45:06;;;;;;;15.03;8.10;;;-4.20;99.90;;;;;;5015314;28;20185;-88
2023/02/07 01:47:34;;;;;;;10.80;5.57;;;-4.20;99.90;;;;;;5015117;28;20185;-88
2023/02/07 01:50:01;;;;;;;16.67;6.00;;;-4.10;99.90;;;;;;5032771;28;20174;-89
2023/02/07 01:52:32;;;;;;;11.07;7.57;;;-4.20;99.90;;;;;;5002923;28;20545;-86
2023/02/07 01:55:04;;;;;;;7.80;6.27;;;-4.20;99.90;;;;;;5018659;28;20173;-87
2023/02/07 01:57:31;;;;;;;23.00;10.27;;;;;;;;;;5036898;28;20233;-87
2023/02/07 01:59:57;;;;;;;13.63;5.77;;;-4.20;99.90;;;;;;5036302;28;20208;-87
2023/02/07 02:02:26;;;;;;;20.63;11.50;;;-4.20;99.90;;;;;;5036281;28;20206;-86
2023/02/07 02:04:54;;;;;;;7.07;6.07;;;-4.30;99.90;;;;;;5018434;28;20182;-86
2023/02/07 02:07:20;;;;;;;5.17;4.23;;;-4.30;99.90;;;;;;5036644;28;20676;-86
2023/02/07 02:09:46;;;;;;;6.20;5.37;;;;;;;;;;5002026;28;20277;-86
2023/02/07 02:12:12;;;;;;;15.07;7.50;;;;;;;;;;5018645;28;20189;-86
2023/02/07 02:14:38;;;;;;;6.73;6.13;;;;;;;;;;5018513;28;20181;-86
2023/02/07 02:17:04;;;;;;;5.90;5.17;;;;;;;;;;5018110;28;20746;-87
2023/02/07 02:19:45;;;;;;;17.20;7.07;;;-4.30;99.90;;;;;;5036568;28;20192;-87
2023/02/07 02:22:31;;;;;;;8.53;4.30;;;-4.20;99.90;;;;;;5042459;28;20228;-86
2023/02/07 02:25:25;;;;;;;33.23;8.27;;;-4.20;99.90;;;;;;5021685;28;20190;-86
2023/02/07 02:28:03;;;;;;;7.03;5.00;;;-4.20;99.90;;;;;;5018399;28;20184;-87
2023/02/07 02:31:01;;;;;;;10.27;6.40;;;-4.20;99.90;;;;;;5017991;28;20217;-87
2023/02/07 02:33:45;;;;;;;17.63;9.40;;;-2.90;99.90;;;;;;5036296;28;20170;-86
2023/02/07 02:36:33;;;;;;;5.50;4.80;;;-3.60;99.90;;;;;;5017835;28;20251;-86
2023/02/07 02:39:08;;;;;;;21.67;7.17;;;-4.10;99.90;;;;;;5035954;28;20174;-87
2023/02/07 02:41:55;;;;;;;12.73;7.40;;;-4.10;99.90;;;;;;5036763;28;20214;-85
2023/02/07 02:44:50;;;;;;;12.07;6.53;;;-4.00;99.90;;;;;;5046770;28;20167;-85
2023/02/07 02:47:19;;;;;;;8.73;5.50;;;-4.00;99.90;;;;;;5027030;28;20209;-87
2023/02/07 02:49:46;;;;;;;13.83;7.20;;;-2.40;99.90;;;;;;5035412;28;20335;-86
2023/02/07 02:52:12;;;;;;;12.80;6.33;;;-3.00;99.90;;;;;;5017448;28;20181;-86
2023/02/07 02:54:39;;;;;;;11.07;5.63;;;-3.90;99.90;;;;;;5017642;28;20624;-86
2023/02/07 02:57:35;;;;;;;11.07;6.23;;;-3.60;99.90;;;;;;5035122;28;20208;-87
2023/02/07 03:00:29;;;;;;;7.27;6.57;;;-4.00;99.90;;;;;;5017440;28;20186;-88
2023/02/07 03:03:02;;;;;;;20.43;10.47;;;-4.00;99.90;;;;;;5017140;28;20631;-87
2023/02/07 03:05:39;;;;;;;11.07;7.67;;;-4.00;99.90;;;;;;5017845;28;20592;-87
2023/02/07 03:08:29;;;;;;;10.63;5.87;;;-4.00;99.90;;;;;;5035367;28;20165;-86
2023/02/07 03:11:19;;;;;;;16.80;8.57;;;-4.00;99.90;;;;;;5034780;28;20225;-86
2023/02/07 03:13:48;;;;;;;15.97;6.03;;;-3.50;99.90;;;;;;5035263;28;20202;-86
2023/02/07 03:16:46;;;;;;;17.73;8.47;;;-4.00;99.90;;;;;;5016980;28;20256;-86
2023/02/07 03:19:12;;;;;;;9.77;7.50;;;;;;;;;;5016496;28;20299;-86
2023/02/07 03:21:38;;;;;;;7.87;7.03;;;;;;;;;;5017051;28;20318;-87
2023/02/07 03:24:13;;;;;;;15.50;7.63;;;-3.90;99.90;;;;;;5016944;28;20188;-87
2023/02/07 03:26:41;;;;;;;9.43;6.77;;;-3.90;99.90;;;;;;5034705;28;20185;-87
2023/02/07 03:29:08;;;;;;;17.40;7.30;;;-3.90;99.90;;;;;;5032707;28;20191;-87
2023/02/07 03:31:38;;;;;;;6.43;5.13;;;-3.80;99.90;;;;;;5017070;28;20187;-87
2023/02/07 03:34:09;;;;;;;18.07;8.80;;;-3.90;99.90;;;;;;5033998;28;20183;-86
2023/02/07 03:36:55;;;;;;;11.77;6.77;;;-3.70;99.90;;;;;;5016745;28;20229;-87
2023/02/07 03:39:21;;;;;;;7.20;4.93;;;-4.10;99.90;;;;;;5034113;28;20222;-87
2023/02/07 03:42:06;;;;;;;7.70;4.97;;;-3.90;99.90;;;;;;5000081;28;20256;-87
2023/02/07 03:44:35;;;;;;;4.73;4.33;;;-3.80;99.90;;;;;;5033640;28;20177;-87
2023/02/07 03:47:00;;;;;;;9.17;7.57;;;-3.00;99.90;;;;;;4999774;28;20248;-87
2023/02/07 03:49:26;;;;;;;10.93;5.80;;;-1.90;99.90;;;;;;4999869;28;20191;-87
2023/02/07 03:51:52;;;;;;;7.50;5.47;;;-3.80;99.90;;;;;;5016345;28;20194;-87
2023/02/07 03:54:18;;;;;;;10.77;7.83;;;-3.80;99.90;;;;;;5015521;28;20222;-87
2023/02/07 03:56:44;;;;;;;10.47;7.27;;;;;;;;;;5017990;28;20214;-86
2023/02/07 03:59:10;;;;;;;6.17;5.57;;;;;;;;;;5017555;28;20200;-88
2023/02/07 04:01:41;;;;;;;13.10;6.17;;;;;;;;;;5000070;28;20191;-87
2023/02/07 04:04:10;;;;;;;13.17;6.30;;;-3.80;99.90;;;;;;5034350;28;20178;-87
2023/02/07 04:06:36;;;;;;;12.13;8.63;;;;;;;;;;5000336;28;20193;-86
2023/02/07 04:09:02;;;;;;;9.03;5.60;;;;;;;;;;5015864;28;20180;-86
2023/02/07 04:11:28;;;;;;;19.63;9.43;;;-3.70;99.90;;;;;;5016062;28;20183;-87
2023/02/07 04:13:54;;;;;;;14.93;9.13;;;-3.70;99.90;;;;;;5014575;28;20214;-86
2023/02/07 04:16:20;;;;;;;29.30;14.10;;;-3.70;99.90;;;;;;5015188;28;20694;-85
2023/02/07 04:18:45;;;;;;;16.13;9.50;;;-3.70;99.90;;;;;;5034274;28;20181;-86
2023/02/07 04:21:11;;;;;;;9.87;7.40;;;-3.50;99.90;;;;;;4999136;28;20226;-86
2023/02/07 04:23:37;;;;;;;12.53;7.37;;;;;;;;;;5016079;28;20188;-86
2023/02/07 04:26:03;;;;;;;6.97;4.70;;;-3.60;99.90;;;;;;5015708;28;20352;-86
2023/02/07 04:28:29;;;;;;;9.47;6.97;;;-3.60;99.90;;;;;;5015157;28;20264;-86
2023/02/07 04:30:55;;;;;;;7.23;6.13;;;;;;;;;;5030560;28;20222;-86
2023/02/07 04:33:21;;;;;;;14.40;6.80;;;-3.60;99.90;;;;;;5013851;28;20201;-86
2023/02/07 04:35:55;;;;;;;15.33;6.90;;;-3.70;99.90;;;;;;4995922;28;20219;-85
2023/02/07 04:38:21;;;;;;;5.90;3.90;;;;;;;;;;5013771;28;20189;-86
2023/02/07 04:40:47;;;;;;;7.67;6.93;;;;;;;;;;5012277;28;20188;-86
2023/02/07 04:43:13;;;;;;;8.00;6.90;;;-3.70;99.90;;;;;;5016706;28;20241;-87
2023/02/07 04:45:38;;;;;;;13.90;8.17;;;-3.10;99.90;;;;;;4997336;28;20198;-86
2023/02/07 04:48:04;;;;;;;10.50;6.43;;;-3.60;99.90;;;;;;5028088;28;20282;-87
2023/02/07 04:50:30;;;;;;;11.10;7.43;;;-3.60;99.90;;;;;;5015212;28;20547;-86
2023/02/07 04:52:56;;;;;;;17.00;8.47;;;-3.40;99.90;;;;;;5015043;28;20186;-85
2023/02/07 04:55:22;;;;;;;22.33;12.00;;;;;;;;;;4982534;28;20178;-86
2023/02/07 04:57:48;;;;;;;11.47;6.77;;;;;;;;;;4999215;28;20190;-86
2023/02/07 05:00:14;;;;;;;12.00;6.90;;;-3.60;99.90;;;;;;4998898;28;20186;-86
2023/02/07 05:02:40;;;;;;;9.33;5.33;;;;;;;;;;5015899;28;20193;-85
2023/02/07 05:05:06;;;;;;;16.60;7.87;;;-3.60;99.90;;;;;;5015765;28;20187;-87
2023/02/07 05:07:32;;;;;;;15.40;6.47;;;;;;;;;;4983876;28;20191;-86
2023/02/07 05:09:58;;;;;;;7.27;6.47;;;;;;;;;;4999435;28;20632;-86
2023/02/07 05:12:24;;;;;;;8.80;6.83;;;;;;;;;;5033842;28;20189;-86
2023/02/07 05:14:50;;;;;;;6.63;5.60;;;-3.60;99.90;;;;;;5032544;28;20191;-85
2023/02/07 05:17:16;;;;;;;8.07;5.73;;;;;;;;;;5033057;28;20213;-85
2023/02/07 05:19:42;;;;;;;10.27;6.73;;;;;;;;;;4999963;28;20196;-86
2023/02/07 05:22:08;;;;;;;10.87;7.27;;;-3.50;99.90;;;;;;5033826;28;20279;-87
2023/02/07 05:24:34;;;;;;;15.30;9.77;;;-3.50;99.90;;;;;;4999052;28;20635;-85
2023/02/07 05:27:00;;;;;;;19.20;6.47;;;-2.90;99.90;;;;;;4984630;28;20195;-86
2023/02/07 05:29:26;;;;;;;38.37;15.10;;;;;;;;;;4999017;28;20240;-86
2023/02/07 05:34:36;;;;;;;13.33;8.07;;;-1.70;99.90;;;;;;5029263;28;20198;-86
2023/02/07 05:37:01;;;;;;;18.63;5.70;;;-2.90;99.90;;;;;;5001397;28;20244;-86
2023/02/07 05:39:27;;;;;;;20.20;8.30;;;-2.90;99.90;;;;;;5017929;28;20227;-85
2023/02/07 05:41:53;;;;;;;11.80;7.33;;;-2.00;99.90;;;;;;5019034;28;20188;-85
2023/02/07 05:44:18;;;;;;;10.40;7.03;;;-3.30;99.90;;;;;;5018354;28;20187;-86
2023/02/07 05:46:45;;;;;;;20.93;9.97;;;-2.70;99.90;;;;;;5031216;28;20715;-89
2023/02/07 05:49:10;;;;;;;31.47;13.87;;;-3.20;99.90;;;;;;5035546;28;20186;-87
2023/02/07 05:51:36;;;;;;;7.33;5.63;;;;;;;;;;5016119;28;20195;-87
2023/02/07 05:54:02;;;;;;;12.13;7.57;;;-3.30;99.90;;;;;;5015329;28;20310;-86
2023/02/07 05:56:28;;;;;;;10.27;6.13;;;-3.30;99.90;;;;;;5014939;28;20246;-87
2023/02/07 05:58:53;;;;;;;5.40;4.33;;;-3.10;99.90;;;;;;5032442;28;20248;-87
2023/02/07 06:01:19;;;;;;;15.93;6.70;;;-2.70;99.90;;;;;;5014791;28;20200;-87
2023/02/07 06:03:45;;;;;;;10.97;7.00;;;-3.20;99.90;;;;;;5016016;28;20200;-87
2023/02/07 06:06:10;;;;;;;17.77;8.10;;;-2.20;99.90;;;;;;4991335;28;20650;-86
2023/02/07 06:08:36;;;;;;;11.00;5.67;;;-3.10;99.90;;;;;;5033464;28;20331;-87
2023/02/07 06:11:02;;;;;;;20.30;9.47;;;-2.20;99.90;;;;;;4983458;28;20195;-85
2023/02/07 06:13:28;;;;;;;12.20;7.00;;;-3.10;99.90;;;;;;5033643;28;20244;-87
2023/02/07 06:15:54;;;;;;;17.43;10.43;;;;;;;;;;4999713;28;20582;-86
2023/02/07 06:18:19;;;;;;;11.70;6.77;;;-3.10;99.90;;;;;;5016021;28;20199;-87
2023/02/07 06:20:45;;;;;;;16.53;9.87;;;-3.00;99.90;;;;;;4994987;28;20372;-86
2023/02/07 06:23:11;;;;;;;12.57;6.07;;;;;;;;;;4993563;28;20590;-86
2023/02/07 06:25:36;;;;;;;10.07;7.67;;;-3.00;99.90;;;;;;5014756;28;20206;-85
2023/02/07 06:28:02;;;;;;;11.37;7.47;;;-2.90;99.90;;;;;;5012993;28;20177;-86
2023/02/07 06:30:28;;;;;;;17.83;7.80;;;-3.00;99.90;;;;;;4999805;28;20230;-87
2023/02/07 06:32:54;;;;;;;12.43;6.47;;;-2.90;99.90;;;;;;5014793;28;20188;-87
2023/02/07 06:35:20;;;;;;;13.93;7.77;;;-1.60;99.90;;;;;;4983179;28;20194;-86
2023/02/07 06:37:45;;;;;;;11.60;7.77;;;-2.90;99.90;;;;;;4982228;28;20181;-86
2023/02/07 06:40:11;;;;;;;8.17;7.17;;;-2.60;99.90;;;;;;5009707;28;20207;-86
2023/02/07 06:42:37;;;;;;;18.57;9.40;;;-2.90;99.90;;;;;;4991736;28;20199;-85
2023/02/07 06:45:03;;;;;;;12.60;7.63;;;-2.90;99.90;;;;;;5007546;28;20257;-86
2023/02/07 06:47:28;;;;;;;7.60;5.47;;;-2.80;99.90;;;;;;4995404;28;20197;-86
2023/02/07 06:49:54;;;;;;;9.93;5.87;;;-2.40;99.90;;;;;;5014310;28;20190;-87
2023/02/07 06:52:20;;;;;;;17.67;8.43;;;;;;;;;;5013412;28;20757;-86
2023/02/07 06:54:46;;;;;;;17.53;7.50;;;-2.80;99.90;;;;;;5015238;28;20199;-85
2023/02/07 06:57:11;;;;;;;21.57;12.03;;;-2.80;99.90;;;;;;5000185;28;20743;-87
2023/02/07 06:59:37;;;;;;;16.03;9.27;;;-2.60;99.90;;;;;;4994925;28;20198;-85
2023/02/07 07:02:03;;;;;;;14.20;8.30;;;;;;;;;;4997200;28;20188;-86
2023/02/07 07:04:29;;;;;;;19.00;9.90;;;-2.70;99.90;;;;;;5011986;28;20187;-86
2023/02/07 07:06:57;;;;;;;10.03;7.20;;;-1.40;99.90;;;;;;5037024;28;20198;-86
2023/02/07 07:09:28;;;;;;;15.00;9.13;;;-2.70;99.90;;;;;;4999129;28;20208;-87
2023/02/07 07:11:56;;;;;;;15.30;7.93;;;-2.70;99.90;;;;;;5015994;28;20215;-86
2023/02/07 07:14:22;;;;;;;18.30;10.80;;;-2.60;99.90;;;;;;5029951;28;20279;-87
2023/02/07 07:16:48;;;;;;;14.23;6.53;;;;;;;;;;5015330;28;20298;-85
2023/02/07 07:19:14;;;;;;;27.20;13.00;;;;;;;;;;5013123;28;20273;-86
2023/02/07 07:21:40;;;;;;;23.03;7.53;;;;;;;;;;5023965;28;20685;-85
2023/02/07 07:24:06;;;;;;;22.93;8.83;;;;;;;;;;4999638;28;20247;-89
2023/02/07 07:26:33;;;;;;;22.77;11.33;;;-2.60;99.90;;;;;;5015607;28;20215;-87
2023/02/07 07:29:00;;;;;;;15.83;8.90;;;;;;;;;;5027987;28;20196;-87
2023/02/07 07:31:26;;;;;;;6.90;5.83;;;-2.50;99.90;;;;;;5026365;28;20635;-87
2023/02/07 07:33:53;;;;;;;25.60;11.17;;;-2.50;99.90;;;;;;5012236;28;20190;-86
2023/02/07 07:36:19;;;;;;;31.97;11.83;;;;;;;;;;4981727;28;20219;-86
2023/02/07 07:38:46;;;;;;;11.93;7.63;;;;;;;;;;5012739;28;20198;-85
2023/02/07 07:41:15;;;;;;;16.97;9.13;;;-2.40;99.90;;;;;;5025076;28;20188;-87
2023/02/07 07:43:46;;;;;;;16.50;9.93;;;-2.30;99.90;;;;;;5000578;28;20266;-87
2023/02/07 07:46:19;;;;;;;13.73;7.90;;;;;;;;;;5008742;28;20194;-86
2023/02/07 07:48:45;;;;;;;10.83;7.47;;;;;;;;;;5007413;28;20183;-87
2023/02/07 07:51:13;;;;;;;15.20;9.00;;;-2.30;99.90;;;;;;5014639;28;20192;-86
2023/02/07 07:53:39;;;;;;;18.60;8.90;;;;;;;;;;5036127;28;20199;-89
2023/02/07 07:56:05;;;;;;;38.60;11.57;;;-2.30;99.90;;;;;;5012329;28;20301;-89
2023/02/07 07:58:31;;;;;;;16.60;10.43;;;;;;;;;;5014805;28;20209;-88
2023/02/07 08:00:59;;;;;;;42.83;18.00;;;-2.30;99.90;;;;;;5016367;28;20190;-88
2023/02/07 08:03:25;;;;;;;8.07;7.23;;;;;;;;;;5036333;28;20738;-88
2023/02/07 08:05:59;;;;;;;33.17;8.17;;;;;;;;;;5030988;28;20795;-88
2023/02/07 08:08:25;;;;;;;11.00;5.30;;;;;;;;;;5016993;28;20194;-89
2023/02/07 08:10:52;;;;;;;19.13;12.90;;;-2.20;99.90;;;;;;5015793;28;20191;-86
2023/02/07 08:13:20;;;;;;;14.37;8.10;;;-2.20;99.90;;;;;;5009115;28;20203;-86
2023/02/07 08:15:47;;;;;;;22.93;10.43;;;-4.10;99.90;;;;;;5010555;28;20215;-86
2023/02/07 08:18:13;;;;;;;17.93;9.27;;;;;;;;;;5021907;28;20218;-89
2023/02/07 08:20:39;;;;;;;14.90;9.23;;;-2.10;99.90;;;;;;5017625;28;20235;-86
2023/02/07 08:23:05;;;;;;;15.03;8.23;;;;;;;;;;5014900;28;20556;-89
2023/02/07 08:25:31;;;;;;;22.47;12.47;;;;;;;;;;5006808;28;20203;-88
2023/02/07 08:27:59;;;;;;;28.57;13.93;;;;;;;;;;5028515;28;20188;-86
2023/02/07 08:30:25;;;;;;;18.93;9.63;;;;;;;;;;5006697;28;20658;-87
2023/02/07 08:32:51;;;;;;;17.57;9.03;;;-1.90;99.90;;;;;;5026912;28;20185;-87
2023/02/07 08:35:18;;;;;;;36.93;15.13;;;;;;;;;;5022781;28;20203;-86
2023/02/07 08:37:44;;;;;;;23.07;10.70;;;;;;;;;;5001534;28;20222;-87
2023/02/07 08:40:11;;;;;;;14.40;9.50;;;-1.80;99.90;;;;;;5014919;28;20191;-87
2023/02/07 08:42:39;;;;;;;19.43;8.73;;;-1.70;99.90;;;;;;5025681;28;20194;-87
2023/02/07 08:45:05;;;;;;;29.17;10.07;;;0.20;99.90;;;;;;5010716;28;20199;-87
2023/02/07 08:47:31;;;;;;;14.90;10.70;;;;;;;;;;5016991;28;20207;-86
2023/02/07 08:50:01;;;;;;;15.10;10.60;;;-1.50;99.90;;;;;;5026689;28;20202;-87
2023/02/07 08:52:27;;;;;;;31.40;12.83;;;;;;;;;;5016265;28;20189;-87
2023/02/07 08:54:54;;;;;;;18.17;9.23;;;;;;;;;;5018184;28;20203;-86
2023/02/07 08:57:23;;;;;;;11.83;6.10;;;;;;;;;;4998083;28;20209;-88
2023/02/07 08:59:50;;;;;;;14.00;8.53;;;;;;;;;;5020723;28;20189;-87
2023/02/07 09:02:17;;;;;;;18.20;8.80;;;;;;;;;;5009284;28;20580;-87
2023/02/07 09:04:43;;;;;;;38.17;10.67;;;;;;;;;;4990178;28;20190;-86
2023/02/07 09:07:10;;;;;;;10.00;6.70;;;-1.00;99.90;;;;;;5019520;28;20208;-87
2023/02/07 09:09:37;;;;;;;10.23;7.47;;;;;;;;;;5017846;28;20191;-87
2023/02/07 09:12:08;;;;;;;19.20;9.70;;;0.30;99.90;;;;;;5020263;28;20181;-86
2023/02/07 09:14:36;;;;;;;8.70;5.50;;;-0.90;99.90;;;;;;5019211;28;20206;-87
2023/02/07 09:17:02;;;;;;;11.20;7.03;;;;;;;;;;5024707;28;20674;-86
2023/02/07 09:19:28;;;;;;;19.37;9.07;;;;;;;;;;5019965;28;20243;-85
2023/02/07 09:21:54;;;;;;;17.60;7.70;;;-0.70;99.90;;;;;;4985865;28;20238;-87
2023/02/07 09:24:22;;;;;;;39.58;16.77;;;-0.50;99.90;;;;;;4972820;28;20517;-86
2023/02/07 09:26:48;;;;;;;23.80;10.40;;;;;;;;;;4962658;28;20683;-86
2023/02/07 09:29:14;;;;;;;17.27;8.87;;;;;;;;;;4985731;28;20280;-87
2023/02/07 09:31:41;;;;;;;20.07;10.57;;;-0.60;99.90;;;;;;4990085;28;20178;-87
2023/02/07 09:34:07;;;;;;;14.93;8.87;;;;;;;;;;4990521;28;20186;-88
2023/02/07 09:36:34;;;;;;;19.93;9.30;;;;;;;;;;4985885;28;20570;-86
2023/02/07 09:39:01;;;;;;;23.23;9.13;;;;;;;;;;4959087;28;20203;-85
2023/02/07 09:42:00;;;;;;;18.93;8.50;;;-0.50;99.90;;;;;;5004277;28;20186;-84
2023/02/07 09:44:45;;;;;;;21.83;9.93;;;-0.60;99.90;;;;;;4992142;28;20190;-85
2023/02/07 09:47:12;;;;;;;15.87;9.10;;;0.70;99.90;;;;;;4993339;28;20763;-85
2023/02/07 09:49:45;;;;;;;16.23;8.17;;;-0.50;99.90;;;;;;4991375;28;20186;-86
2023/02/07 09:52:15;;;;;;;13.03;7.90;;;-0.40;99.90;;;;;;4992337;28;20551;-85
2023/02/07 09:54:44;;;;;;;17.07;8.80;;;-0.40;99.90;;;;;;4991654;28;20189;-86
2023/02/07 09:57:45;;;;;;;26.50;7.47;;;-0.50;99.90;;;;;;4991445;28;20216;-85
2023/02/07 10:00:26;;;;;;;13.70;5.57;;;-0.20;99.90;;;;;;4962265;28;20202;-85
2023/02/07 10:03:02;;;;;;;12.60;8.03;;;-0.40;99.90;;;;;;4983499;28;20650;-84
2023/02/07 10:05:57;;;;;;;20.20;8.23;;;-0.50;99.90;;;;;;4956310;28;20209;-86
2023/02/07 10:08:23;;;;;;;13.80;7.90;;;;;;;;;;4973090;28;20196;-85
2023/02/07 10:11:18;;;;;;;24.57;9.47;;;-0.50;99.90;;;;;;4973430;28;20605;-84
2023/02/07 10:14:14;;;;;;;14.90;8.73;;;-0.50;99.90;;;;;;4983828;28;20651;-86
2023/02/07 10:17:17;;;;;;;18.33;8.77;;;-0.50;99.90;;;;;;4993085;28;20681;-86
2023/02/07 10:20:15;;;;;;;34.07;9.00;;;-0.60;99.90;;;;;;4996400;28;20560;-85
2023/02/07 10:22:59;;;;;;;24.80;11.87;;;-0.60;99.90;;;;;;4995546;28;20193;-86
2023/02/07 10:26:11;;;;;;;15.30;7.40;;;-0.50;99.90;;;;;;4990085;28;20183;-85
2023/02/07 10:28:54;;;;;;;21.30;9.73;;;-0.60;99.90;;;;;;4976529;28;20619;-86
2023/02/07 10:31:23;;;;;;;20.77;8.67;;;-0.60;99.90;;;;;;4975898;28;20644;-86
2023/02/07 10:34:13;;;;;;;11.67;5.83;;;-0.60;99.90;;;;;;4975687;28;20190;-87
2023/02/07 10:36:44;;;;;;;14.40;8.00;;;-0.50;99.90;;;;;;4975966;28;20296;-86
2023/02/07 10:39:36;;;;;;;22.83;6.47;;;-0.50;99.90;;;;;;4976976;28;20194;-85
2023/02/07 10:42:10;;;;;;;13.60;7.13;;;0.10;99.90;;;;;;4977288;28;20312;-86
2023/02/07 10:44:36;;;;;;;12.67;7.27;;;;;;;;;;4973304;28;20193;-86
2023/02/07 10:47:06;;;;;;;10.20;6.43;;;-0.50;99.90;;;;;;4981754;28;20646;-86
2023/02/07 10:49:36;;;;;;;21.30;10.37;;;-0.40;99.90;;;;;;4996488;28;20262;-86
2023/02/07 10:52:16;;;;;;;9.83;5.33;;;-0.50;99.90;;;;;;4994863;28;20631;-86
2023/02/07 10:55:02;;;;;;;18.77;10.27;;;-0.50;99.90;;;;;;4998051;28;20666;-86
2023/02/07 10:57:29;;;;;;;19.80;9.63;;;-0.50;99.90;;;;;;4975752;28;20214;-86
2023/02/07 10:59:58;;;;;;;17.17;8.20;;;-0.50;99.90;;;;;;4974536;28;20538;-85
2023/02/07 11:02:33;;;;;;;17.13;6.83;;;-0.50;99.90;;;;;;4991616;28;20253;-86
2023/02/07 11:05:05;;;;;;;9.30;5.20;;;-0.30;99.90;;;;;;5005130;28;20189;-85
2023/02/07 11:07:31;;;;;;;20.03;8.80;;;;;;;;;;4996175;28;20200;-87
2023/02/07 11:10:37;;;;;;;12.37;6.47;;;-0.40;99.90;;;;;;4994119;28;20182;-87
2023/02/07 11:13:13;;;;;;;12.33;6.50;;;-0.30;99.90;;;;;;4985360;28;20332;-85
2023/02/07 11:15:48;;;;;;;9.27;6.07;;;-0.30;99.90;;;;;;4959824;28;20779;-85
2023/02/07 11:18:53;;;;;;;6.47;5.13;;;-0.30;99.90;;;;;;4993400;28;20193;-86
2023/02/07 11:21:52;;;;;;;13.90;8.37;;;-0.30;99.90;;;;;;4992221;28;20717;-86
2023/02/07 11:24:24;;;;;;;14.50;7.50;;;-0.30;99.90;;;;;;5005801;28;20208;-87
2023/02/07 11:26:55;;;;;;;6.43;4.47;;;-0.30;99.90;;;;;;5007210;28;20187;-87
2023/02/07 11:29:23;;;;;;;14.37;7.17;;;-0.30;99.90;;;;;;4989636;28;20209;-85
2023/02/07 11:31:51;;;;;;;17.97;7.93;;;-0.30;99.90;;;;;;4994155;28;20174;-87
2023/02/07 11:34:36;;;;;;;14.57;5.27;;;-0.20;99.90;;;;;;4993642;28;20189;-86
2023/02/07 11:37:21;;;;;;;10.03;5.40;;;-0.20;99.90;;;;;;4994997;28;20198;-85
2023/02/07 11:39:48;;;;;;;12.73;7.70;;;-0.40;99.90;;;;;;4991161;28;20190;-86
2023/02/07 11:42:22;;;;;;;13.23;7.13;;;-0.20;99.90;;;;;;4963852;28;20281;-86
2023/02/07 11:44:50;;;;;;;17.07;7.33;;;-0.20;99.90;;;;;;4993565;28;20189;-86
2023/02/07 11:47:20;;;;;;;20.27;7.40;;;-0.20;99.90;;;;;;4994033;28;20181;-86
2023/02/07 11:49:51;;;;;;;16.13;6.63;;;-0.20;99.90;;;;;;4987871;28;20185;-85
2023/02/07 11:52:17;;;;;;;22.90;8.50;;;-0.20;99.90;;;;;;4995101;28;20571;-85
2023/02/07 11:54:49;;;;;;;19.47;7.30;;;-0.20;99.90;;;;;;4994702;28;20178;-86
2023/02/07 11:57:17;;;;;;;16.00;6.40;;;-0.10;99.90;;;;;;4993718;28;20220;-85
2023/02/07 12:00:05;;;;;;;16.70;7.50;;;-0.10;99.90;;;;;;4996804;28;20213;-85
2023/02/07 12:02:32;;;;;;;20.40;8.83;;;-0.20;99.90;;;;;;4980970;28;20187;-85
2023/02/07 12:05:17;;;;;;;10.30;6.17;;;-0.10;99.90;;;;;;4960430;28;20549;-85
2023/02/07 12:07:51;;;;;;;28.27;8.67;;;-0.20;99.90;;;;;;4994247;28;20600;-85
2023/02/07 12:10:25;;;;;;;14.80;7.93;;;0.20;99.90;;;;;;4992007;28;20194;-85
2023/02/07 12:13:15;;;;;;;11.20;6.87;;;-0.20;99.90;;;;;;4994041;28;20186;-86
2023/02/07 12:15:50;;;;;;;11.87;7.50;;;-0.20;99.90;;;;;;4995098;28;20178;-84
2023/02/07 12:18:30;;;;;;;18.90;7.13;;;-0.20;99.90;;;;;;4993474;28;20196;-85
2023/02/07 12:21:17;;;;;;;9.60;5.73;;;-0.20;99.90;;;;;;5009797;28;20224;-85
2023/02/07 12:23:53;;;;;;;13.07;7.47;;;-0.20;99.90;;;;;;5015989;28;20202;-85
2023/02/07 12:26:21;;;;;;;19.90;9.13;;;-0.20;99.90;;;;;;5033645;28;20167;-85
2023/02/07 12:29:05;;;;;;;18.07;9.07;;;-0.30;99.90;;;;;;5033839;28;20176;-85
2023/02/07 12:31:36;;;;;;;11.80;6.77;;;-0.30;99.90;;;;;;5016090;28;20214;-85
2023/02/07 12:34:16;;;;;;;12.27;7.27;;;-0.30;99.90;;;;;;5015367;28;20543;-85
2023/02/07 12:36:47;;;;;;;18.17;7.67;;;-0.20;99.90;;;;;;5033525;28;20604;-85
2023/02/07 12:39:21;;;;;;;19.23;8.30;;;-0.20;99.90;;;;;;5033382;28;20573;-85
2023/02/07 12:42:21;;;;;;;19.30;6.70;;;-0.20;99.90;;;;;;5033620;28;20157;-84
2023/02/07 12:44:54;;;;;;;11.00;6.93;;;-0.10;99.90;;;;;;5021826;28;20231;-85
2023/02/07 12:47:19;;;;;;;15.20;8.73;;;-0.10;99.90;;;;;;5014055;28;20534;-85
2023/02/07 12:49:45;;;;;;;28.00;7.23;;;-0.10;99.90;;;;;;5015025;28;20196;-85
2023/02/07 12:52:29;;;;;;;14.03;7.47;;;-0.10;99.90;;;;;;5015558;28;20189;-85
2023/02/07 12:55:11;;;;;;;25.33;7.90;;;-0.10;99.90;;;;;;5036715;28;20196;-85
2023/02/07 12:57:55;;;;;;;14.47;8.30;;;-0.10;99.90;;;;;;5044187;28;20238;-83
2023/02/07 13:00:46;;;;;;;15.00;6.70;;;0.00;99.90;;;;;;5035790;28;20187;-85
2023/02/07 13:03:28;;;;;;;9.70;5.47;;;0.00;99.90;;;;;;5015019;28;20172;-85
2023/02/07 13:06:23;;;;;;;10.90;6.07;;;-0.10;99.90;;;;;;5033889;28;20203;-84
2023/02/07 13:09:06;;;;;;;13.90;7.43;;;-0.10;99.90;;;;;;5026408;28;20190;-85
2023/02/07 13:11:59;;;;;;;18.10;8.17;;;-0.10;99.90;;;;;;5023777;28;20192;-87
2023/02/07 13:14:34;;;;;;;14.97;8.73;;;-0.10;99.90;;;;;;5009343;28;20184;-88
2023/02/07 13:17:42;;;;;;;12.47;6.90;;;0.00;99.90;;;;;;5027423;28;20254;-86
2023/02/07 13:20:40;;;;;;;17.60;7.83;;;-0.30;99.90;;;;;;4979665;28;20443;-86
2023/02/07 13:23:24;;;;;;;15.13;8.47;;;0.00;99.90;;;;;;5043242;28;20649;-86
2023/02/07 13:26:16;;;;;;;18.97;9.30;;;0.00;99.90;;;;;;5034916;28;20171;-85
2023/02/07 13:28:53;;;;;;;16.23;6.00;;;0.00;99.90;;;;;;5051292;28;20175;-84